Portada
METAR-TAF:

METAR-TAF

Aeroports :

Gíger, Algèria

latitud: 36-53N, longitud: 005-49E, altitud: 2 m

Observació

L'informe es va fer fa 44 minuts, a les 21:00 UTC
Vent 2 kt del Sud-Oest
Temperatura 18°C
Humitat 88%
Pressió 1022 hPa
Visibilitat 10 km o més
Escasses núvols a una alçada de 1600 ft

METAR: DAAV 262100Z 22002KT 9999 FEW016 18/16 Q1022

Hora: 22:44 (21:44 UTC)

Pronòstic

L'informe es va fer fa 4 hores i 44 minuts, a les 17:00 UTC
Pronòstic vàlid del 26 a les 18 UTC al 27 a les 18 UTC
Vent 8 kt del Nord/Nord-Est
Visibilitat 10 km o més
Núvols disperses a una alçada de 2000 ft
Evolucionant progressivament
l' 26 a les 19 UTC al 26 a les 21 UTC
Vent 6 kt del Sud
Evolucionant progressivament
l' 27 a les 05 UTC al 27 a les 07 UTC
Vent 8 kt del Nord/Nord-Est

TAF: DAAV 261700Z 2618/2718 02008KT 9999 SCT020 BECMG 2619/2621 18006KT BECMG 2705/2707 02008KT

Observacions i pronòstics meteorològics de més de 4000 aeroports (METAR i TAF).

Les estacions disponibles són els punts grocs i vermells al mapa.

Posi el ratolí al punt desitjat per veure el nom de l'estació.

Feu clic per veure les observacions i els pronòstics meteorològics.

Per canviar el mapa: feu clic els botons verds amb una creu de color negre per apropar; al botó verd amb un guió per allunyar la imatge; o en les fletxes verdes per a mapes adjacents.


METAR-TAF: